Flight NumberQSM567 Date21.06.2024
Departure AirportEGLL Arrival AirportLIRF
Departure Time4.21Arrival Time6.52
Pilot In CommandSaeed Yousefi Block Time2.50 Hours
Pilot Rating100 % AircraftEP-FCD [ A300F4-600R ]


Distance781.00 Nm. Passengers0
Fuel Used12,965 Kg. Cargo93 Kg
Expense Details Income Details
Fuel Cost21,595 v$Ticket Sales0 v$
Pilot Salary14,134 v$ Cargo income176.00 v$
Crew Salary172 v$ Bonus16,827 v$
Gross Profit86,828 v$ ( 2,170,700 v$ )

Client Versionv2.6.0 Max Simrate1
Flight Critique Pilot CommentsLIRF 210520Z 06003KT CAVOK 27/18 Q1014 NOSIG - ILS16L - WT